Time,TemperatureF,DewpointF,PressureIn,WindDirection,WindDirectionDegrees,WindSpeedMPH,WindSpeedGustMPH,Humidity,HourlyPrecipIn,Conditions,Clouds,dailyrainin,SoftwareType,DateUTC
2013-07-12 00:43:00,67.0,55.0,-100.00,SSE,155,15.0,17.0,63,-99.99,,,-99.99,,2013-07-12 04:43:00,
2013-07-12 00:53:00,68.0,55.0,-100.00,SSE,160,16.0,20.0,64,-99.99,,,-99.99,,2013-07-12 04:53:00,
2013-07-12 01:02:00,67.0,56.0,-100.00,South,190,12.0,16.0,65,-99.99,,,-99.99,,2013-07-12 05:02:00,
2013-07-12 01:43:00,69.0,49.0,-100.00,SW,230,12.0,18.0,48,-99.99,,,-99.99,,2013-07-12 05:43:00,
2013-07-12 02:42:00,68.0,48.0,-100.00,WSW,255,12.0,17.0,48,-99.99,,,-99.99,,2013-07-12 06:42:00,
2013-07-12 03:12:00,68.0,47.0,-100.00,WSW,240,12.0,17.0,47,-99.99,,,-99.99,,2013-07-12 07:12:00,
2013-07-12 03:43:00,68.0,47.0,-100.00,WSW,255,16.0,21.0,47,-99.99,,,-99.99,,2013-07-12 07:43:00,
2013-07-12 04:42:00,64.0,48.0,-100.00,West,265,18.0,27.0,54,-99.99,,,-99.99,,2013-07-12 08:42:00,
2013-07-12 05:02:00,63.0,49.0,-100.00,West,280,19.0,27.0,59,-99.99,,,-99.99,,2013-07-12 09:02:00,
2013-07-12 05:12:00,63.0,49.0,-100.00,West,270,19.0,26.0,60,-99.99,,,-99.99,,2013-07-12 09:12:00,
2013-07-12 05:42:00,62.0,50.0,-100.00,West,280,17.0,22.0,63,-99.99,,,-99.99,,2013-07-12 09:42:00,
2013-07-12 05:52:00,62.0,50.0,-100.00,West,270,15.0,22.0,64,-99.99,,,-99.99,,2013-07-12 09:52:00,
2013-07-12 06:42:00,61.0,51.0,-100.00,WSW,250,13.0,25.0,69,-99.99,,,-99.99,,2013-07-12 10:42:00,
2013-07-12 07:43:00,61.0,51.0,-100.00,West,280,21.0,29.0,71,-99.99,,,-99.99,,2013-07-12 11:43:00,
2013-07-12 08:32:00,61.0,51.0,-100.00,West,270,19.0,23.0,71,-99.99,,,-99.99,,2013-07-12 12:32:00,
2013-07-12 08:43:00,61.0,51.0,-100.00,West,275,19.0,23.0,70,-99.99,,,-99.99,,2013-07-12 12:43:00,
2013-07-12 09:43:00,63.0,51.0,-100.00,West,265,22.0,27.0,65,-99.99,,,-99.99,,2013-07-12 13:43:00,
2013-07-12 10:11:00,65.0,52.0,-100.00,West,270,20.0,26.0,63,-99.99,,,-99.99,,2013-07-12 14:11:00,
2013-07-12 10:43:00,65.0,52.0,-100.00,West,265,17.0,22.0,62,-99.99,,,-99.99,,2013-07-12 14:43:00,
2013-07-12 11:11:00,64.0,51.0,-100.00,WSW,250,12.0,22.0,62,-99.99,,,-99.99,,2013-07-12 15:11:00,
2013-07-12 11:43:00,64.0,51.0,-100.00,West,260,14.0,18.0,64,-99.99,,,-99.99,,2013-07-12 15:43:00,
2013-07-12 12:42:00,65.0,52.0,-100.00,WSW,250,6.0,12.0,61,-99.99,,,-99.99,,2013-07-12 16:42:00,
2013-07-12 13:05:00,66.0,52.0,-100.00,West,260,6.0,8.0,60,-99.99,,,-99.99,,2013-07-12 17:05:00,
2013-07-12 13:13:00,67.0,52.0,-100.00,West,260,6.0,7.0,58,-99.99,,,-99.99,,2013-07-12 17:13:00,
2013-07-12 13:44:00,69.0,52.0,-100.00,WNW,295,1.0,7.0,54,-99.99,,,-99.99,,2013-07-12 17:44:00,
2013-07-12 14:05:00,73.0,54.0,-100.00,North,0,2.0,6.0,50,-99.99,,,-99.99,,2013-07-12 18:05:00,
2013-07-12 14:13:00,72.0,52.0,-100.00,SW,220,4.0,9.0,50,-99.99,,,-99.99,,2013-07-12 18:13:00,
2013-07-12 14:46:00,71.0,53.0,-100.00,SE,135,11.0,17.0,52,-99.99,,,-99.99,,2013-07-12 18:46:00,
2013-07-12 15:44:00,71.0,54.0,-100.00,SSE,150,14.0,18.0,53,-99.99,,,-99.99,,2013-07-12 19:44:00,
2013-07-12 17:14:00,66.0,56.0,-100.00,South,180,10.0,14.0,70,-99.99,,,-99.99,,2013-07-12 21:14:00,
2013-07-12 17:45:00,67.0,58.0,-100.00,SSE,150,13.0,18.0,72,-99.99,,,-99.99,,2013-07-12 21:45:00,
2013-07-12 18:02:00,65.0,57.0,-100.00,SSE,150,22.0,28.0,75,-99.99,,,-99.99,,2013-07-12 22:02:00,
2013-07-12 18:44:00,67.0,56.0,-100.00,SSE,150,21.0,30.0,66,-99.99,,,-99.99,,2013-07-12 22:44:00,
2013-07-12 19:03:00,66.0,55.0,-100.00,SSE,150,25.0,35.0,66,-99.99,,,-99.99,,2013-07-12 23:03:00,
2013-07-12 19:42:00,63.0,56.0,-100.00,SSE,150,21.0,25.0,78,-99.99,,,-99.99,,2013-07-12 23:42:00,
2013-07-12 20:04:00,60.0,56.0,-100.00,SSE,165,20.0,26.0,87,-99.99,,,-99.99,,2013-07-13 00:04:00,
2013-07-12 20:45:00,57.0,57.0,-100.00,SSW,210,11.0,21.0,99,-99.99,,,-99.99,,2013-07-13 00:45:00,
2013-07-12 20:54:00,57.0,57.0,-100.00,SW,225,6.0,13.0,99,-99.99,,,-99.99,,2013-07-13 00:54:00,
2013-07-12 21:11:00,58.0,58.0,-100.00,SSE,165,4.0,9.0,99,-99.99,,,-99.99,,2013-07-13 01:11:00,
2013-07-12 21:35:00,58.0,57.0,-100.00,SSE,165,7.0,12.0,96,-99.99,,,-99.99,,2013-07-13 01:35:00,
2013-07-12 21:45:00,58.0,57.0,-100.00,SSE,165,7.0,11.0,97,-99.99,,,-99.99,,2013-07-13 01:45:00,
2013-07-12 21:54:00,58.0,57.0,-100.00,South,180,6.0,7.0,98,-99.99,,,-99.99,,2013-07-13 01:54:00,
2013-07-12 22:04:00,58.0,57.0,-100.00,South,170,10.0,11.0,98,-99.99,,,-99.99,,2013-07-13 02:04:00,
2013-07-12 22:14:00,58.0,57.0,-100.00,South,170,9.0,11.0,96,-99.99,,,-99.99,,2013-07-13 02:14:00,
2013-07-12 23:04:00,59.0,56.0,-100.00,WSW,245,9.0,12.0,89,-99.99,,,-99.99,,2013-07-13 03:04:00,
2013-07-12 23:12:00,59.0,56.0,-100.00,WSW,255,14.0,17.0,89,-99.99,,,-99.99,,2013-07-13 03:12:00,
2013-07-12 23:44:00,58.0,57.0,-100.00,WNW,300,20.0,27.0,97,-99.99,,,-99.99,,2013-07-13 03:44:00,